CheckWX is a tool to help pilots better visualize weather data.  It is not intended as a substitute for an official pre-flight weather briefing.

07:31:14 UTC

HTDA TAF
Julius Nyerere International Airport
Dar es Salaam, Tanzania
HTDA 200500Z 2006/2112 15015KT 9999 BKN023 BECMG 2013/2015 SCT020

Aug-20@
06:00 UTC

Aug-20 @ 06:00 UTC

Aug-20@
13:00 UTC

Aug-20 @ 13:00 UTC

HTDA 200500Z 2006/2112 15015KT 9999 BKN023
Wind
  • 150° at 15 KTS
Cloud Levels
  • Broken at 2,300' AGL

Aug-20@
13:00 UTC

Aug-20 @ 13:00 UTC

Aug-21@
12:00 UTC

Aug-21 @ 12:00 UTC

BECMG 2013/2015 SCT020

Becoming

Becoming Conditions expected by Tue, Aug 20, 2019 @ 15:00 UTC

Wind
  • 150° at 15 KTS
Cloud Levels
  • Scattered at 2,000' AGL